sensor_id;sensor_type;location;lat;lon;timestamp;temperature;humidity
52743;DHT22;55583;53.012;6.556;2023-06-19T11:12:39;23.30;89.60
52743;DHT22;55583;53.012;6.556;2023-06-19T11:15:05;23.30;89.00
52743;DHT22;55583;53.012;6.556;2023-06-19T11:17:31;23.20;88.90
52743;DHT22;55583;53.012;6.556;2023-06-19T11:19:57;23.40;90.00
52743;DHT22;55583;53.012;6.556;2023-06-19T11:22:39;24.00;88.60
52743;DHT22;55583;53.012;6.556;2023-06-19T11:25:09;24.70;85.30
52743;DHT22;55583;53.012;6.556;2023-06-19T11:27:38;25.70;81.90
52743;DHT22;55583;53.012;6.556;2023-06-19T11:30:05;26.50;75.50
52743;DHT22;55583;53.012;6.556;2023-06-19T11:32:38;26.50;74.30
52743;DHT22;55583;53.012;6.556;2023-06-19T11:35:11;26.20;72.10
52743;DHT22;55583;53.012;6.556;2023-06-19T11:37:39;26.20;72.10
52743;DHT22;55583;53.012;6.556;2023-06-19T11:40:05;26.10;73.00
52743;DHT22;55583;53.012;6.556;2023-06-19T11:42:51;26.10;72.90
52743;DHT22;55583;53.012;6.556;2023-06-19T11:45:17;26.20;71.30
52743;DHT22;55583;53.012;6.556;2023-06-19T11:47:46;26.30;71.60
52743;DHT22;55583;53.012;6.556;2023-06-19T11:50:13;26.80;71.90
52743;DHT22;55583;53.012;6.556;2023-06-19T11:52:43;27.50;70.40
52743;DHT22;55583;53.012;6.556;2023-06-19T11:55:13;28.30;66.10
52743;DHT22;55583;53.012;6.556;2023-06-19T11:57:42;28.40;65.70
52743;DHT22;55583;53.012;6.556;2023-06-19T12:00:16;28.00;64.50
52743;DHT22;55583;53.012;6.556;2023-06-19T12:02:44;27.30;64.50
52743;DHT22;55583;53.012;6.556;2023-06-19T12:05:10;26.60;66.50
52743;DHT22;55583;53.012;6.556;2023-06-19T12:07:36;26.10;67.40
52743;DHT22;55583;53.012;6.556;2023-06-19T12:10:05;25.60;67.90
52743;DHT22;55583;53.012;6.556;2023-06-19T12:12:36;25.30;69.10
52743;DHT22;55583;53.012;6.556;2023-06-19T12:15:04;25.80;69.30
52743;DHT22;55583;53.012;6.556;2023-06-19T12:17:29;26.40;67.60
52743;DHT22;55583;53.012;6.556;2023-06-19T12:19:55;26.40;67.00
52743;DHT22;55583;53.012;6.556;2023-06-19T12:22:21;26.20;67.40
52743;DHT22;55583;53.012;6.556;2023-06-19T12:24:46;26.10;67.30
52743;DHT22;55583;53.012;6.556;2023-06-19T12:27:12;25.90;67.60
52743;DHT22;55583;53.012;6.556;2023-06-19T12:29:38;25.80;68.10
52743;DHT22;55583;53.012;6.556;2023-06-19T12:32:05;25.70;68.40
52743;DHT22;55583;53.012;6.556;2023-06-19T12:34:31;25.70;68.70
52743;DHT22;55583;53.012;6.556;2023-06-19T12:36:56;26.00;68.90
52743;DHT22;55583;53.012;6.556;2023-06-19T12:39:25;26.20;68.20
52743;DHT22;55583;53.012;6.556;2023-06-19T12:41:52;26.40;68.00
52743;DHT22;55583;53.012;6.556;2023-06-19T12:44:17;26.60;68.10
52743;DHT22;55583;53.012;6.556;2023-06-19T12:46:43;26.50;67.80
52743;DHT22;55583;53.012;6.556;2023-06-19T12:49:09;26.40;67.20
52743;DHT22;55583;53.012;6.556;2023-06-19T12:51:34;26.40;67.00
52743;DHT22;55583;53.012;6.556;2023-06-19T12:54:00;26.30;66.40
52743;DHT22;55583;53.012;6.556;2023-06-19T12:56:26;26.80;66.60
52743;DHT22;55583;53.012;6.556;2023-06-19T12:58:51;27.20;65.40
52743;DHT22;55583;53.012;6.556;2023-06-19T13:01:17;27.30;65.00
52743;DHT22;55583;53.012;6.556;2023-06-19T13:03:45;27.40;65.10
52743;DHT22;55583;53.012;6.556;2023-06-19T13:06:11;27.50;64.50
52743;DHT22;55583;53.012;6.556;2023-06-19T13:08:37;27.70;64.00
52743;DHT22;55583;53.012;6.556;2023-06-19T13:11:02;27.90;64.00
52743;DHT22;55583;53.012;6.556;2023-06-19T13:13:28;28.00;63.40
52743;DHT22;55583;53.012;6.556;2023-06-19T13:15:53;27.80;63.80
52743;DHT22;55583;53.012;6.556;2023-06-19T13:18:19;28.20;64.50
52743;DHT22;55583;53.012;6.556;2023-06-19T13:20:45;28.50;62.70
52743;DHT22;55583;53.012;6.556;2023-06-19T13:23:13;28.40;62.00
52743;DHT22;55583;53.012;6.556;2023-06-19T13:25:39;28.10;62.50
52743;DHT22;55583;53.012;6.556;2023-06-19T13:28:08;28.00;63.10
52743;DHT22;55583;53.012;6.556;2023-06-19T13:30:33;28.00;62.70
52743;DHT22;55583;53.012;6.556;2023-06-19T13:32:59;28.00;62.20
52743;DHT22;55583;53.012;6.556;2023-06-19T13:35:25;27.90;62.30
52743;DHT22;55583;53.012;6.556;2023-06-19T13:37:50;28.30;62.30
52743;DHT22;55583;53.012;6.556;2023-06-19T13:40:16;29.10;62.00
52743;DHT22;55583;53.012;6.556;2023-06-19T13:42:41;29.60;60.70
52743;DHT22;55583;53.012;6.556;2023-06-19T13:45:07;29.60;60.00
52743;DHT22;55583;53.012;6.556;2023-06-19T13:47:36;29.30;60.10
52743;DHT22;55583;53.012;6.556;2023-06-19T13:50:02;29.40;60.00
52743;DHT22;55583;53.012;6.556;2023-06-19T13:52:28;29.40;59.50
52743;DHT22;55583;53.012;6.556;2023-06-19T13:54:53;29.60;59.70
52743;DHT22;55583;53.012;6.556;2023-06-19T13:57:19;29.60;59.00
52743;DHT22;55583;53.012;6.556;2023-06-19T13:59:44;29.80;59.80
52743;DHT22;55583;53.012;6.556;2023-06-19T14:02:10;30.40;58.80
52743;DHT22;55583;53.012;6.556;2023-06-19T14:04:36;30.70;57.90
52743;DHT22;55583;53.012;6.556;2023-06-19T14:07:01;30.80;56.40
52743;DHT22;55583;53.012;6.556;2023-06-19T14:09:27;30.70;56.10
52743;DHT22;55583;53.012;6.556;2023-06-19T14:11:52;30.60;56.50
52743;DHT22;55583;53.012;6.556;2023-06-19T14:14:18;30.90;55.90
52743;DHT22;55583;53.012;6.556;2023-06-19T14:16:44;31.20;55.30
52743;DHT22;55583;53.012;6.556;2023-06-19T14:19:09;31.20;54.00
52743;DHT22;55583;53.012;6.556;2023-06-19T14:21:35;31.20;55.00
52743;DHT22;55583;53.012;6.556;2023-06-19T14:24:00;31.40;54.60
52743;DHT22;55583;53.012;6.556;2023-06-19T14:26:26;31.10;54.10
52743;DHT22;55583;53.012;6.556;2023-06-19T14:28:52;30.80;53.10
52743;DHT22;55583;53.012;6.556;2023-06-19T14:31:23;30.70;53.40
52743;DHT22;55583;53.012;6.556;2023-06-19T14:33:48;30.70;53.50
52743;DHT22;55583;53.012;6.556;2023-06-19T14:36:20;30.90;53.10
52743;DHT22;55583;53.012;6.556;2023-06-19T14:38:46;30.70;53.10
52743;DHT22;55583;53.012;6.556;2023-06-19T14:41:11;30.80;53.20
52743;DHT22;55583;53.012;6.556;2023-06-19T14:43:37;30.60;53.30
52743;DHT22;55583;53.012;6.556;2023-06-19T14:46:02;30.60;53.30
52743;DHT22;55583;53.012;6.556;2023-06-19T14:48:29;30.60;53.40
52743;DHT22;55583;53.012;6.556;2023-06-19T14:50:58;30.50;53.50
52743;DHT22;55583;53.012;6.556;2023-06-19T14:53:24;30.50;53.00
52743;DHT22;55583;53.012;6.556;2023-06-19T14:55:49;30.30;51.70
52743;DHT22;55583;53.012;6.556;2023-06-19T14:58:15;30.20;51.90
52743;DHT22;55583;53.012;6.556;2023-06-19T15:00:41;30.30;51.50
52743;DHT22;55583;53.012;6.556;2023-06-19T15:03:07;30.20;51.30
52743;DHT22;55583;53.012;6.556;2023-06-19T15:05:33;30.10;50.40
52743;DHT22;55583;53.012;6.556;2023-06-19T15:07:59;30.00;50.40
52743;DHT22;55583;53.012;6.556;2023-06-19T15:10:28;30.10;50.60
52743;DHT22;55583;53.012;6.556;2023-06-19T15:12:54;30.20;50.60
52743;DHT22;55583;53.012;6.556;2023-06-19T15:15:20;30.00;51.20
52743;DHT22;55583;53.012;6.556;2023-06-19T15:17:45;29.70;52.10
52743;DHT22;55583;53.012;6.556;2023-06-19T15:20:14;29.30;52.90
52743;DHT22;55583;53.012;6.556;2023-06-19T15:22:42;28.70;52.90
52743;DHT22;55583;53.012;6.556;2023-06-19T15:25:08;28.10;53.90
52743;DHT22;55583;53.012;6.556;2023-06-19T15:27:33;27.70;55.00
52743;DHT22;55583;53.012;6.556;2023-06-19T15:29:59;27.60;54.60
52743;DHT22;55583;53.012;6.556;2023-06-19T15:32:25;27.40;54.90
52743;DHT22;55583;53.012;6.556;2023-06-19T15:34:50;27.30;55.50
52743;DHT22;55583;53.012;6.556;2023-06-19T15:37:16;27.20;55.70
52743;DHT22;55583;53.012;6.556;2023-06-19T15:39:42;27.20;55.80
52743;DHT22;55583;53.012;6.556;2023-06-19T15:42:10;27.20;56.20
52743;DHT22;55583;53.012;6.556;2023-06-19T15:44:36;27.20;55.50
52743;DHT22;55583;53.012;6.556;2023-06-19T15:47:02;27.20;56.00
52743;DHT22;55583;53.012;6.556;2023-06-19T15:49:28;27.20;56.40
52743;DHT22;55583;53.012;6.556;2023-06-19T15:51:53;27.10;56.50
52743;DHT22;55583;53.012;6.556;2023-06-19T15:54:19;27.10;56.60
52743;DHT22;55583;53.012;6.556;2023-06-19T15:56:44;27.00;56.20
52743;DHT22;55583;53.012;6.556;2023-06-19T15:59:10;26.80;57.20
52743;DHT22;55583;53.012;6.556;2023-06-19T16:01:36;26.70;57.10
52743;DHT22;55583;53.012;6.556;2023-06-19T16:04:02;26.50;56.70
52743;DHT22;55583;53.012;6.556;2023-06-19T16:06:27;26.40;57.10
52743;DHT22;55583;53.012;6.556;2023-06-19T16:08:56;26.40;57.20
52743;DHT22;55583;53.012;6.556;2023-06-19T16:11:22;26.30;57.60
52743;DHT22;55583;53.012;6.556;2023-06-19T16:13:51;26.20;58.30
52743;DHT22;55583;53.012;6.556;2023-06-19T16:16:16;26.20;58.30
52743;DHT22;55583;53.012;6.556;2023-06-19T16:18:42;26.10;58.10
52743;DHT22;55583;53.012;6.556;2023-06-19T16:21:08;26.10;57.80
52743;DHT22;55583;53.012;6.556;2023-06-19T16:23:33;26.10;57.90
52743;DHT22;55583;53.012;6.556;2023-06-19T16:25:59;26.20;57.80
52743;DHT22;55583;53.012;6.556;2023-06-19T16:28:24;26.20;57.90
52743;DHT22;55583;53.012;6.556;2023-06-19T16:30:50;26.20;58.30
52743;DHT22;55583;53.012;6.556;2023-06-19T16:33:16;26.20;58.60
52743;DHT22;55583;53.012;6.556;2023-06-19T16:35:42;26.20;58.80
52743;DHT22;55583;53.012;6.556;2023-06-19T16:38:08;26.20;58.70
52743;DHT22;55583;53.012;6.556;2023-06-19T16:40:34;26.10;58.70
52743;DHT22;55583;53.012;6.556;2023-06-19T16:42:59;26.10;59.10
52743;DHT22;55583;53.012;6.556;2023-06-19T16:45:25;26.10;59.50
52743;DHT22;55583;53.012;6.556;2023-06-19T16:47:52;26.20;59.50
52743;DHT22;55583;53.012;6.556;2023-06-19T16:50:18;26.30;59.60
52743;DHT22;55583;53.012;6.556;2023-06-19T16:52:43;26.30;59.70
52743;DHT22;55583;53.012;6.556;2023-06-19T16:55:10;26.40;60.20
52743;DHT22;55583;53.012;6.556;2023-06-19T16:57:35;26.40;59.70
52743;DHT22;55583;53.012;6.556;2023-06-19T17:00:01;26.30;59.50
52743;DHT22;55583;53.012;6.556;2023-06-19T17:02:28;26.30;59.20
52743;DHT22;55583;53.012;6.556;2023-06-19T17:04:54;26.20;59.10
52743;DHT22;55583;53.012;6.556;2023-06-19T17:07:20;26.20;59.30
52743;DHT22;55583;53.012;6.556;2023-06-19T17:09:45;26.10;59.50
52743;DHT22;55583;53.012;6.556;2023-06-19T17:12:13;26.10;60.30
52743;DHT22;55583;53.012;6.556;2023-06-19T17:14:40;26.00;60.10
52743;DHT22;55583;53.012;6.556;2023-06-19T17:17:06;25.90;60.40
52743;DHT22;55583;53.012;6.556;2023-06-19T17:19:32;25.70;60.20
52743;DHT22;55583;53.012;6.556;2023-06-19T17:21:58;25.60;60.70
52743;DHT22;55583;53.012;6.556;2023-06-19T17:24:23;25.60;61.20
52743;DHT22;55583;53.012;6.556;2023-06-19T17:26:49;25.50;60.70
52743;DHT22;55583;53.012;6.556;2023-06-19T17:29:21;25.50;60.70
52743;DHT22;55583;53.012;6.556;2023-06-19T17:31:47;25.50;61.70
52743;DHT22;55583;53.012;6.556;2023-06-19T17:34:13;25.50;62.20
52743;DHT22;55583;53.012;6.556;2023-06-19T17:36:38;25.60;61.50
52743;DHT22;55583;53.012;6.556;2023-06-19T17:39:04;25.70;61.30
52743;DHT22;55583;53.012;6.556;2023-06-19T17:41:29;25.70;61.30
52743;DHT22;55583;53.012;6.556;2023-06-19T17:43:55;25.60;61.00
52743;DHT22;55583;53.012;6.556;2023-06-19T17:46:21;25.50;61.30
52743;DHT22;55583;53.012;6.556;2023-06-19T17:48:47;25.30;61.50
52743;DHT22;55583;53.012;6.556;2023-06-19T17:51:13;25.10;61.80
52743;DHT22;55583;53.012;6.556;2023-06-19T17:53:38;25.00;62.20
52743;DHT22;55583;53.012;6.556;2023-06-19T17:56:04;24.80;62.90
52743;DHT22;55583;53.012;6.556;2023-06-19T17:58:31;24.70;63.20
52743;DHT22;55583;53.012;6.556;2023-06-19T18:00:57;24.60;64.30
52743;DHT22;55583;53.012;6.556;2023-06-19T18:03:23;24.60;65.10
52743;DHT22;55583;53.012;6.556;2023-06-19T18:05:49;24.50;64.50
52743;DHT22;55583;53.012;6.556;2023-06-19T18:08:14;24.40;65.00
52743;DHT22;55583;53.012;6.556;2023-06-19T18:10:40;24.40;65.70
52743;DHT22;55583;53.012;6.556;2023-06-19T18:13:06;24.40;66.20
52743;DHT22;55583;53.012;6.556;2023-06-19T18:15:31;24.20;66.30
52743;DHT22;55583;53.012;6.556;2023-06-19T18:17:57;24.10;66.60
52743;DHT22;55583;53.012;6.556;2023-06-19T18:20:23;24.10;67.20
52743;DHT22;55583;53.012;6.556;2023-06-19T18:22:48;24.00;67.20
52743;DHT22;55583;53.012;6.556;2023-06-19T18:25:14;24.00;67.40
52743;DHT22;55583;53.012;6.556;2023-06-19T18:27:39;24.00;67.10
52743;DHT22;55583;53.012;6.556;2023-06-19T18:30:08;24.00;67.10
52743;DHT22;55583;53.012;6.556;2023-06-19T18:32:34;23.90;67.60
52743;DHT22;55583;53.012;6.556;2023-06-19T18:35:00;23.90;67.40
52743;DHT22;55583;53.012;6.556;2023-06-19T18:37:25;23.80;68.10
52743;DHT22;55583;53.012;6.556;2023-06-19T18:39:53;23.80;68.00
52743;DHT22;55583;53.012;6.556;2023-06-19T18:42:20;23.70;67.80
52743;DHT22;55583;53.012;6.556;2023-06-19T18:44:45;23.60;68.00
52743;DHT22;55583;53.012;6.556;2023-06-19T18:47:11;23.60;68.20
52743;DHT22;55583;53.012;6.556;2023-06-19T18:49:37;23.50;68.40
52743;DHT22;55583;53.012;6.556;2023-06-19T18:52:03;23.40;68.90
52743;DHT22;55583;53.012;6.556;2023-06-19T18:54:28;23.30;69.30
52743;DHT22;55583;53.012;6.556;2023-06-19T18:56:54;23.20;69.70
52743;DHT22;55583;53.012;6.556;2023-06-19T18:59:20;23.20;70.20
52743;DHT22;55583;53.012;6.556;2023-06-19T19:01:46;23.10;70.40
52743;DHT22;55583;53.012;6.556;2023-06-19T19:04:12;23.10;70.30
52743;DHT22;55583;53.012;6.556;2023-06-19T19:06:38;23.00;70.10
52743;DHT22;55583;53.012;6.556;2023-06-19T19:09:03;22.90;69.80
52743;DHT22;55583;53.012;6.556;2023-06-19T19:11:29;22.80;69.40
52743;DHT22;55583;53.012;6.556;2023-06-19T19:13:54;22.70;69.50
52743;DHT22;55583;53.012;6.556;2023-06-19T19:16:20;22.70;69.90
52743;DHT22;55583;53.012;6.556;2023-06-19T19:18:46;22.50;70.00
52743;DHT22;55583;53.012;6.556;2023-06-19T19:21:11;22.50;70.80
52743;DHT22;55583;53.012;6.556;2023-06-19T19:23:37;22.40;70.20
52743;DHT22;55583;53.012;6.556;2023-06-19T19:26:03;22.40;70.40
52743;DHT22;55583;53.012;6.556;2023-06-19T19:28:28;22.30;70.50
52743;DHT22;55583;53.012;6.556;2023-06-19T19:30:54;22.30;70.30
52743;DHT22;55583;53.012;6.556;2023-06-19T19:33:20;22.20;70.10
52743;DHT22;55583;53.012;6.556;2023-06-19T19:35:45;22.20;70.10
52743;DHT22;55583;53.012;6.556;2023-06-19T19:38:11;22.10;70.40
52743;DHT22;55583;53.012;6.556;2023-06-19T19:40:37;22.00;70.90
52743;DHT22;55583;53.012;6.556;2023-06-19T19:43:02;21.90;71.30
52743;DHT22;55583;53.012;6.556;2023-06-19T19:45:28;21.80;71.60
52743;DHT22;55583;53.012;6.556;2023-06-19T19:47:54;21.80;71.80
52743;DHT22;55583;53.012;6.556;2023-06-19T19:50:20;21.70;72.20
52743;DHT22;55583;53.012;6.556;2023-06-19T19:52:46;21.50;72.40
52743;DHT22;55583;53.012;6.556;2023-06-19T19:55:12;21.40;72.60
52743;DHT22;55583;53.012;6.556;2023-06-19T19:57:39;21.30;72.50
52743;DHT22;55583;53.012;6.556;2023-06-19T20:00:06;21.30;72.60
52743;DHT22;55583;53.012;6.556;2023-06-19T20:02:32;21.20;72.70
52743;DHT22;55583;53.012;6.556;2023-06-19T20:04:57;21.10;72.90
52743;DHT22;55583;53.012;6.556;2023-06-19T20:07:23;21.00;73.20
52743;DHT22;55583;53.012;6.556;2023-06-19T20:09:49;20.90;73.50
52743;DHT22;55583;53.012;6.556;2023-06-19T20:12:14;20.80;73.90
52743;DHT22;55583;53.012;6.556;2023-06-19T20:14:40;20.70;74.30
52743;DHT22;55583;53.012;6.556;2023-06-19T20:17:06;20.60;74.60
52743;DHT22;55583;53.012;6.556;2023-06-19T20:19:31;20.50;74.80
52743;DHT22;55583;53.012;6.556;2023-06-19T20:21:57;20.40;75.00
52743;DHT22;55583;53.012;6.556;2023-06-19T20:24:23;20.40;75.40
52743;DHT22;55583;53.012;6.556;2023-06-19T20:26:48;20.20;75.80
52743;DHT22;55583;53.012;6.556;2023-06-19T20:29:14;20.10;76.40
52743;DHT22;55583;53.012;6.556;2023-06-19T20:31:39;20.00;77.20
52743;DHT22;55583;53.012;6.556;2023-06-19T20:34:05;19.90;78.00
52743;DHT22;55583;53.012;6.556;2023-06-19T20:36:32;19.80;78.70
52743;DHT22;55583;53.012;6.556;2023-06-19T20:38:58;19.70;79.40
52743;DHT22;55583;53.012;6.556;2023-06-19T20:41:23;19.60;79.90
52743;DHT22;55583;53.012;6.556;2023-06-19T20:43:49;19.50;80.40
52743;DHT22;55583;53.012;6.556;2023-06-19T20:46:15;19.50;81.10
52743;DHT22;55583;53.012;6.556;2023-06-19T20:48:44;19.30;81.70
52743;DHT22;55583;53.012;6.556;2023-06-19T20:51:10;19.30;82.50
52743;DHT22;55583;53.012;6.556;2023-06-19T20:53:35;19.20;82.90
52743;DHT22;55583;53.012;6.556;2023-06-19T20:56:01;19.30;83.80
52743;DHT22;55583;53.012;6.556;2023-06-19T20:58:27;19.10;84.30
52743;DHT22;55583;53.012;6.556;2023-06-19T21:00:53;19.00;85.10
52743;DHT22;55583;53.012;6.556;2023-06-19T21:03:19;19.00;86.10
52743;DHT22;55583;53.012;6.556;2023-06-19T21:05:46;18.80;87.60
52743;DHT22;55583;53.012;6.556;2023-06-19T21:08:12;18.80;89.20
52743;DHT22;55583;53.012;6.556;2023-06-19T21:10:38;18.70;90.00
52743;DHT22;55583;53.012;6.556;2023-06-19T21:13:05;18.70;90.40
52743;DHT22;55583;53.012;6.556;2023-06-19T21:15:31;18.60;90.70
52743;DHT22;55583;53.012;6.556;2023-06-19T21:17:56;18.60;91.00
52743;DHT22;55583;53.012;6.556;2023-06-19T21:20:22;18.60;91.80
52743;DHT22;55583;53.012;6.556;2023-06-19T21:22:47;18.40;92.20
52743;DHT22;55583;53.012;6.556;2023-06-19T21:25:13;18.40;92.80
52743;DHT22;55583;53.012;6.556;2023-06-19T21:27:39;18.40;93.20
52743;DHT22;55583;53.012;6.556;2023-06-19T21:30:05;18.40;93.70
52743;DHT22;55583;53.012;6.556;2023-06-19T21:32:31;18.30;94.00
52743;DHT22;55583;53.012;6.556;2023-06-19T21:34:56;18.30;94.50
52743;DHT22;55583;53.012;6.556;2023-06-19T21:37:22;18.30;94.80
52743;DHT22;55583;53.012;6.556;2023-06-19T21:39:47;18.30;94.90
52743;DHT22;55583;53.012;6.556;2023-06-19T21:42:13;18.20;95.10
52743;DHT22;55583;53.012;6.556;2023-06-19T21:44:38;18.20;95.30
52743;DHT22;55583;53.012;6.556;2023-06-19T21:47:04;18.10;95.20
52743;DHT22;55583;53.012;6.556;2023-06-19T21:49:30;18.10;95.30
52743;DHT22;55583;53.012;6.556;2023-06-19T21:51:56;18.10;95.50
52743;DHT22;55583;53.012;6.556;2023-06-19T21:54:21;18.10;95.80
52743;DHT22;55583;53.012;6.556;2023-06-19T21:56:47;18.00;96.00
52743;DHT22;55583;53.012;6.556;2023-06-19T21:59:12;18.00;96.20
52743;DHT22;55583;53.012;6.556;2023-06-19T22:01:38;18.00;96.60
52743;DHT22;55583;53.012;6.556;2023-06-19T22:04:04;18.00;97.00
52743;DHT22;55583;53.012;6.556;2023-06-19T22:06:30;17.90;97.80
52743;DHT22;55583;53.012;6.556;2023-06-19T22:08:56;17.90;98.50
52743;DHT22;55583;53.012;6.556;2023-06-19T22:11:28;17.90;98.90
52743;DHT22;55583;53.012;6.556;2023-06-19T22:13:54;17.90;99.50
52743;DHT22;55583;53.012;6.556;2023-06-19T22:16:19;17.90;99.90
52743;DHT22;55583;53.012;6.556;2023-06-19T22:18:45;17.90;99.90
52743;DHT22;55583;53.012;6.556;2023-06-19T22:21:11;17.90;99.90
52743;DHT22;55583;53.012;6.556;2023-06-19T22:23:36;17.90;99.90
52743;DHT22;55583;53.012;6.556;2023-06-19T22:26:03;17.90;99.90
52743;DHT22;55583;53.012;6.556;2023-06-19T22:28:29;17.90;99.90
52743;DHT22;55583;53.012;6.556;2023-06-19T22:30:55;17.90;99.90
52743;DHT22;55583;53.012;6.556;2023-06-19T22:33:20;18.00;99.90
52743;DHT22;55583;53.012;6.556;2023-06-19T22:35:46;18.00;99.90
52743;DHT22;55583;53.012;6.556;2023-06-19T22:38:12;18.00;99.90
52743;DHT22;55583;53.012;6.556;2023-06-19T22:40:37;18.00;99.90
52743;DHT22;55583;53.012;6.556;2023-06-19T22:43:03;18.00;99.90
52743;DHT22;55583;53.012;6.556;2023-06-19T22:45:29;18.10;99.90
52743;DHT22;55583;53.012;6.556;2023-06-19T22:47:54;18.10;99.90
52743;DHT22;55583;53.012;6.556;2023-06-19T22:50:20;18.10;99.90
52743;DHT22;55583;53.012;6.556;2023-06-19T22:52:45;18.10;99.90
52743;DHT22;55583;53.012;6.556;2023-06-19T22:55:11;18.00;99.90
52743;DHT22;55583;53.012;6.556;2023-06-19T22:57:37;18.00;99.90
52743;DHT22;55583;53.012;6.556;2023-06-19T23:00:07;18.00;99.90
52743;DHT22;55583;53.012;6.556;2023-06-19T23:02:33;17.90;99.90
52743;DHT22;55583;53.012;6.556;2023-06-19T23:04:59;17.90;99.90
52743;DHT22;55583;53.012;6.556;2023-06-19T23:07:24;17.90;99.90
52743;DHT22;55583;53.012;6.556;2023-06-19T23:09:50;17.80;99.90
52743;DHT22;55583;53.012;6.556;2023-06-19T23:12:16;17.80;99.90
52743;DHT22;55583;53.012;6.556;2023-06-19T23:14:41;17.80;99.90
52743;DHT22;55583;53.012;6.556;2023-06-19T23:17:07;17.80;99.90
52743;DHT22;55583;53.012;6.556;2023-06-19T23:19:32;17.80;99.90
52743;DHT22;55583;53.012;6.556;2023-06-19T23:21:58;17.70;99.90
52743;DHT22;55583;53.012;6.556;2023-06-19T23:24:24;17.70;99.90
52743;DHT22;55583;53.012;6.556;2023-06-19T23:26:53;17.70;99.90
52743;DHT22;55583;53.012;6.556;2023-06-19T23:29:19;17.80;99.90
52743;DHT22;55583;53.012;6.556;2023-06-19T23:31:45;17.60;99.90
52743;DHT22;55583;53.012;6.556;2023-06-19T23:34:10;17.60;99.90
52743;DHT22;55583;53.012;6.556;2023-06-19T23:36:36;17.60;99.90
52743;DHT22;55583;53.012;6.556;2023-06-19T23:39:02;17.60;99.90
52743;DHT22;55583;53.012;6.556;2023-06-19T23:41:27;17.50;99.90
52743;DHT22;55583;53.012;6.556;2023-06-19T23:43:53;17.50;99.90
52743;DHT22;55583;53.012;6.556;2023-06-19T23:46:18;17.50;99.90
52743;DHT22;55583;53.012;6.556;2023-06-19T23:48:44;17.50;99.90
52743;DHT22;55583;53.012;6.556;2023-06-19T23:51:10;17.50;99.90
52743;DHT22;55583;53.012;6.556;2023-06-19T23:53:35;17.50;99.90
52743;DHT22;55583;53.012;6.556;2023-06-19T23:56:01;17.40;99.90
52743;DHT22;55583;53.012;6.556;2023-06-19T23:58:27;17.40;99.90
